North Pickens Airport (FAA LID: 3M8) is a county-owned public-use airport in Pickens County, Alabama, United States.
UNICOM: None
CTAF: 122.9 MHz
ATIS: None
RADAR SERVICE: Approach / Departure
COLUMBUS APPROACH/DEPARTURE: 135.6 MHz APCH/P DEP/P
Runway 1/19
Dimensions: 5144 x 80 ft. / 1568 x 24 m
Surface: asphalt, in good condition
Runway edge lights: medium intensity
Nearest
TUSCALOOSA, AL
Metar
KTCL 202353Z 00000KT 10SM CLR 07/02 A3014 RMK AO2 SLP207 T00670022 10144 20061 53001

23:53 UTC

Wind: 0° 0kt

Visibility: 10 SM

Sky:

Temp: 7 deg C / 44.6 deg F

Dewpoint: 2 deg C / 35.6 deg F

Pressure: 30.14 inHg

TAF
KTCL 202338Z 2100/2124 00000KT P6SM BKN250 FM211500 18005KT P6SM SCT250